sensor_id;sensor_type;location;lat;lon;timestamp;temperature;humidity
38167;DHT22;23980;51.902;12.832;2022-09-09T00:02:37;14.50;62.90
38167;DHT22;23980;51.902;12.832;2022-09-09T00:07:51;14.40;62.90
38167;DHT22;23980;51.902;12.832;2022-09-09T00:13:11;14.40;63.80
38167;DHT22;23980;51.902;12.832;2022-09-09T00:23:32;14.30;63.10
38167;DHT22;23980;51.902;12.832;2022-09-09T00:28:41;14.30;63.30
38167;DHT22;23980;51.902;12.832;2022-09-09T00:33:43;14.30;63.20
38167;DHT22;23980;51.902;12.832;2022-09-09T00:38:56;14.20;62.80
38167;DHT22;23980;51.902;12.832;2022-09-09T01:00:24;14.00;63.10
38167;DHT22;23980;51.902;12.832;2022-09-09T01:10:50;13.90;62.80
38167;DHT22;23980;51.902;12.832;2022-09-09T01:15:56;13.90;63.30
38167;DHT22;23980;51.902;12.832;2022-09-09T01:21:35;13.90;62.80
38167;DHT22;23980;51.902;12.832;2022-09-09T01:26:44;13.80;63.20
38167;DHT22;23980;51.902;12.832;2022-09-09T01:32:42;13.80;63.00
38167;DHT22;23980;51.902;12.832;2022-09-09T01:37:44;13.70;63.20
38167;DHT22;23980;51.902;12.832;2022-09-09T01:42:45;13.80;62.80
38167;DHT22;23980;51.902;12.832;2022-09-09T01:47:46;13.70;62.90
38167;DHT22;23980;51.902;12.832;2022-09-09T01:53:11;13.70;62.80
38167;DHT22;23980;51.902;12.832;2022-09-09T02:03:35;13.60;63.00
38167;DHT22;23980;51.902;12.832;2022-09-09T02:08:52;13.60;62.80
38167;DHT22;23980;51.902;12.832;2022-09-09T02:19:28;13.60;63.20
38167;DHT22;23980;51.902;12.832;2022-09-09T02:24:40;13.60;63.00
38167;DHT22;23980;51.902;12.832;2022-09-09T02:29:49;13.50;62.90
38167;DHT22;23980;51.902;12.832;2022-09-09T02:35:02;13.50;62.90
38167;DHT22;23980;51.902;12.832;2022-09-09T02:40:06;13.50;63.20
38167;DHT22;23980;51.902;12.832;2022-09-09T02:45:12;13.50;62.90
38167;DHT22;23980;51.902;12.832;2022-09-09T02:50:23;13.40;62.90
38167;DHT22;23980;51.902;12.832;2022-09-09T03:00:47;13.40;63.30
38167;DHT22;23980;51.902;12.832;2022-09-09T03:05:48;13.30;62.80
38167;DHT22;23980;51.902;12.832;2022-09-09T03:10:49;13.30;62.80
38167;DHT22;23980;51.902;12.832;2022-09-09T03:15:50;13.30;62.80
38167;DHT22;23980;51.902;12.832;2022-09-09T03:20:54;13.20;62.80
38167;DHT22;23980;51.902;12.832;2022-09-09T03:25:55;13.20;62.80
38167;DHT22;23980;51.902;12.832;2022-09-09T03:31:07;13.20;62.90
38167;DHT22;23980;51.902;12.832;2022-09-09T03:36:14;13.20;62.90
38167;DHT22;23980;51.902;12.832;2022-09-09T03:41:15;13.20;63.00
38167;DHT22;23980;51.902;12.832;2022-09-09T03:46:21;13.20;63.00
38167;DHT22;23980;51.902;12.832;2022-09-09T03:51:22;13.20;63.10
38167;DHT22;23980;51.902;12.832;2022-09-09T03:56:23;13.20;63.10
38167;DHT22;23980;51.902;12.832;2022-09-09T04:01:24;13.20;63.00
38167;DHT22;23980;51.902;12.832;2022-09-09T04:06:25;13.10;63.00
38167;DHT22;23980;51.902;12.832;2022-09-09T04:11:26;13.10;62.90
38167;DHT22;23980;51.902;12.832;2022-09-09T04:16:30;13.10;62.90
38167;DHT22;23980;51.902;12.832;2022-09-09T04:21:33;13.10;62.80
38167;DHT22;23980;51.902;12.832;2022-09-09T04:26:36;13.00;62.80
38167;DHT22;23980;51.902;12.832;2022-09-09T04:31:37;13.00;62.80
38167;DHT22;23980;51.902;12.832;2022-09-09T04:36:42;13.00;62.80
38167;DHT22;23980;51.902;12.832;2022-09-09T04:41:44;13.00;62.80
38167;DHT22;23980;51.902;12.832;2022-09-09T04:46:46;13.00;62.90
38167;DHT22;23980;51.902;12.832;2022-09-09T04:51:51;13.00;62.90
38167;DHT22;23980;51.902;12.832;2022-09-09T04:56:53;13.00;63.50
38167;DHT22;23980;51.902;12.832;2022-09-09T05:01:55;13.10;63.00
38167;DHT22;23980;51.902;12.832;2022-09-09T05:06:56;13.10;63.00
38167;DHT22;23980;51.902;12.832;2022-09-09T05:11:58;13.10;63.00
38167;DHT22;23980;51.902;12.832;2022-09-09T05:17:06;13.10;63.10
38167;DHT22;23980;51.902;12.832;2022-09-09T05:22:08;13.10;63.00
38167;DHT22;23980;51.902;12.832;2022-09-09T05:27:19;13.20;63.20
38167;DHT22;23980;51.902;12.832;2022-09-09T05:32:21;13.20;63.20
38167;DHT22;23980;51.902;12.832;2022-09-09T05:37:23;13.30;63.20
38167;DHT22;23980;51.902;12.832;2022-09-09T05:42:30;13.30;63.30
38167;DHT22;23980;51.902;12.832;2022-09-09T05:47:32;13.40;63.50
38167;DHT22;23980;51.902;12.832;2022-09-09T05:52:34;13.50;63.60
38167;DHT22;23980;51.902;12.832;2022-09-09T05:57:49;13.60;63.60
38167;DHT22;23980;51.902;12.832;2022-09-09T06:02:51;13.60;64.10
38167;DHT22;23980;51.902;12.832;2022-09-09T06:07:53;13.70;63.70
38167;DHT22;23980;51.902;12.832;2022-09-09T06:12:54;13.70;63.70
38167;DHT22;23980;51.902;12.832;2022-09-09T06:17:57;13.80;63.80
38167;DHT22;23980;51.902;12.832;2022-09-09T06:22:57;13.90;64.00
38167;DHT22;23980;51.902;12.832;2022-09-09T06:27:58;14.10;64.20
38167;DHT22;23980;51.902;12.832;2022-09-09T06:32:59;14.20;64.20
38167;DHT22;23980;51.902;12.832;2022-09-09T06:38:01;14.30;64.20
38167;DHT22;23980;51.902;12.832;2022-09-09T06:43:02;14.40;64.10
38167;DHT22;23980;51.902;12.832;2022-09-09T06:48:14;14.50;64.20
38167;DHT22;23980;51.902;12.832;2022-09-09T06:53:20;14.60;64.20
38167;DHT22;23980;51.902;12.832;2022-09-09T06:58:21;14.70;64.50
38167;DHT22;23980;51.902;12.832;2022-09-09T07:03:23;14.90;64.40
38167;DHT22;23980;51.902;12.832;2022-09-09T07:08:24;15.00;64.50
38167;DHT22;23980;51.902;12.832;2022-09-09T07:13:26;15.10;64.50
38167;DHT22;23980;51.902;12.832;2022-09-09T07:18:33;15.30;64.70
38167;DHT22;23980;51.902;12.832;2022-09-09T07:23:35;15.50;64.90
38167;DHT22;23980;51.902;12.832;2022-09-09T07:28:37;15.60;64.70
38167;DHT22;23980;51.902;12.832;2022-09-09T07:33:37;15.80;64.80
38167;DHT22;23980;51.902;12.832;2022-09-09T07:38:40;15.90;64.70
38167;DHT22;23980;51.902;12.832;2022-09-09T07:43:47;16.10;64.70
38167;DHT22;23980;51.902;12.832;2022-09-09T07:48:53;16.20;65.00
38167;DHT22;23980;51.902;12.832;2022-09-09T07:54:01;16.40;64.80
38167;DHT22;23980;51.902;12.832;2022-09-09T07:59:08;16.50;64.80
38167;DHT22;23980;51.902;12.832;2022-09-09T08:04:14;16.70;64.90
38167;DHT22;23980;51.902;12.832;2022-09-09T08:09:16;16.80;64.70
38167;DHT22;23980;51.902;12.832;2022-09-09T08:14:28;16.80;65.00
38167;DHT22;23980;51.902;12.832;2022-09-09T08:19:30;16.90;64.90
38167;DHT22;23980;51.902;12.832;2022-09-09T08:24:34;17.00;64.50
38167;DHT22;23980;51.902;12.832;2022-09-09T08:29:35;17.10;64.60
38167;DHT22;23980;51.902;12.832;2022-09-09T08:34:38;17.20;65.10
38167;DHT22;23980;51.902;12.832;2022-09-09T08:39:43;17.30;64.50
38167;DHT22;23980;51.902;12.832;2022-09-09T08:50:03;17.50;64.70
38167;DHT22;23980;51.902;12.832;2022-09-09T08:55:30;17.60;64.60
38167;DHT22;23980;51.902;12.832;2022-09-09T09:11:58;18.00;64.60
38167;DHT22;23980;51.902;12.832;2022-09-09T09:17:14;18.20;64.80
38167;DHT22;23980;51.902;12.832;2022-09-09T09:22:19;18.30;64.80
38167;DHT22;23980;51.902;12.832;2022-09-09T09:27:36;18.50;64.50
38167;DHT22;23980;51.902;12.832;2022-09-09T09:33:00;18.70;64.90
38167;DHT22;23980;51.902;12.832;2022-09-09T09:38:18;19.10;65.40
38167;DHT22;23980;51.902;12.832;2022-09-09T09:43:32;20.90;68.60
38167;DHT22;23980;51.902;12.832;2022-09-09T09:48:36;24.10;69.60
38167;DHT22;23980;51.902;12.832;2022-09-09T09:53:38;27.10;70.30
38167;DHT22;23980;51.902;12.832;2022-09-09T10:04:15;30.40;66.70
38167;DHT22;23980;51.902;12.832;2022-09-09T10:09:39;32.40;65.70
38167;DHT22;23980;51.902;12.832;2022-09-09T10:25:31;36.50;63.40
38167;DHT22;23980;51.902;12.832;2022-09-09T10:36:12;38.30;62.40
38167;DHT22;23980;51.902;12.832;2022-09-09T10:56:53;39.90;59.70
38167;DHT22;23980;51.902;12.832;2022-09-09T11:02:15;40.30;59.40
38167;DHT22;23980;51.902;12.832;2022-09-09T12:19:39;40.80;60.00
38167;DHT22;23980;51.902;12.832;2022-09-09T12:30:15;31.40;57.80
38167;DHT22;23980;51.902;12.832;2022-09-09T12:35:28;30.50;56.00
38167;DHT22;23980;51.902;12.832;2022-09-09T12:40:40;29.60;57.00
38167;DHT22;23980;51.902;12.832;2022-09-09T12:45:43;28.90;56.90
38167;DHT22;23980;51.902;12.832;2022-09-09T12:50:48;28.70;57.80
38167;DHT22;23980;51.902;12.832;2022-09-09T12:55:57;28.40;57.20
38167;DHT22;23980;51.902;12.832;2022-09-09T13:00:59;27.90;57.00
38167;DHT22;23980;51.902;12.832;2022-09-09T13:06:12;27.40;56.60
38167;DHT22;23980;51.902;12.832;2022-09-09T13:11:18;26.90;57.00
38167;DHT22;23980;51.902;12.832;2022-09-09T13:16:29;26.30;57.00
38167;DHT22;23980;51.902;12.832;2022-09-09T13:21:39;25.70;57.10
38167;DHT22;23980;51.902;12.832;2022-09-09T13:26:39;24.80;57.40
38167;DHT22;23980;51.902;12.832;2022-09-09T13:31:40;24.40;59.20
38167;DHT22;23980;51.902;12.832;2022-09-09T13:36:41;25.10;62.50
38167;DHT22;23980;51.902;12.832;2022-09-09T13:41:45;26.00;63.90
38167;DHT22;23980;51.902;12.832;2022-09-09T13:47:17;26.70;64.40
38167;DHT22;23980;51.902;12.832;2022-09-09T13:52:19;27.10;62.70
38167;DHT22;23980;51.902;12.832;2022-09-09T13:57:24;26.80;59.80
38167;DHT22;23980;51.902;12.832;2022-09-09T14:02:26;26.40;58.70
38167;DHT22;23980;51.902;12.832;2022-09-09T14:07:27;25.90;57.70
38167;DHT22;23980;51.902;12.832;2022-09-09T14:12:27;25.50;57.30
38167;DHT22;23980;51.902;12.832;2022-09-09T14:17:28;25.20;57.60
38167;DHT22;23980;51.902;12.832;2022-09-09T14:22:31;25.50;59.90
38167;DHT22;23980;51.902;12.832;2022-09-09T14:27:32;25.70;59.90
38167;DHT22;23980;51.902;12.832;2022-09-09T14:32:33;25.60;59.00
38167;DHT22;23980;51.902;12.832;2022-09-09T14:37:47;25.40;58.70
38167;DHT22;23980;51.902;12.832;2022-09-09T14:42:56;25.70;60.30
38167;DHT22;23980;51.902;12.832;2022-09-09T14:47:57;25.80;60.30
38167;DHT22;23980;51.902;12.832;2022-09-09T14:53:00;25.60;59.20
38167;DHT22;23980;51.902;12.832;2022-09-09T14:58:03;25.40;58.90
38167;DHT22;23980;51.902;12.832;2022-09-09T15:03:09;25.60;59.50
38167;DHT22;23980;51.902;12.832;2022-09-09T15:08:11;25.70;59.80
38167;DHT22;23980;51.902;12.832;2022-09-09T15:13:15;25.60;58.90
38167;DHT22;23980;51.902;12.832;2022-09-09T15:18:27;25.30;58.60
38167;DHT22;23980;51.902;12.832;2022-09-09T15:23:32;25.00;58.20
38167;DHT22;23980;51.902;12.832;2022-09-09T15:28:35;24.60;57.60
38167;DHT22;23980;51.902;12.832;2022-09-09T15:33:41;24.30;57.40
38167;DHT22;23980;51.902;12.832;2022-09-09T15:38:42;23.90;57.50
38167;DHT22;23980;51.902;12.832;2022-09-09T15:43:44;23.50;57.20
38167;DHT22;23980;51.902;12.832;2022-09-09T15:48:47;22.90;57.10
38167;DHT22;23980;51.902;12.832;2022-09-09T15:53:54;22.50;57.70
38167;DHT22;23980;51.902;12.832;2022-09-09T15:59:03;22.40;58.70
38167;DHT22;23980;51.902;12.832;2022-09-09T16:04:03;22.50;59.00
38167;DHT22;23980;51.902;12.832;2022-09-09T16:09:06;22.40;58.90
38167;DHT22;23980;51.902;12.832;2022-09-09T16:14:08;22.30;59.20
38167;DHT22;23980;51.902;12.832;2022-09-09T16:19:11;22.10;59.10
38167;DHT22;23980;51.902;12.832;2022-09-09T16:24:15;22.00;59.40
38167;DHT22;23980;51.902;12.832;2022-09-09T16:29:17;21.80;59.10
38167;DHT22;23980;51.902;12.832;2022-09-09T16:34:18;21.60;59.10
38167;DHT22;23980;51.902;12.832;2022-09-09T16:39:21;21.30;58.90
38167;DHT22;23980;51.902;12.832;2022-09-09T16:44:23;21.10;58.70
38167;DHT22;23980;51.902;12.832;2022-09-09T16:49:24;20.80;58.70
38167;DHT22;23980;51.902;12.832;2022-09-09T16:54:26;20.50;58.70
38167;DHT22;23980;51.902;12.832;2022-09-09T16:59:29;20.20;58.80
38167;DHT22;23980;51.902;12.832;2022-09-09T17:04:32;19.90;59.10
38167;DHT22;23980;51.902;12.832;2022-09-09T17:09:33;19.70;59.30
38167;DHT22;23980;51.902;12.832;2022-09-09T17:14:34;19.60;59.30
38167;DHT22;23980;51.902;12.832;2022-09-09T17:19:35;19.40;59.30
38167;DHT22;23980;51.902;12.832;2022-09-09T17:24:35;19.30;59.40
38167;DHT22;23980;51.902;12.832;2022-09-09T17:29:38;19.10;59.50
38167;DHT22;23980;51.902;12.832;2022-09-09T17:34:40;18.90;59.50
38167;DHT22;23980;51.902;12.832;2022-09-09T17:39:41;18.70;59.50
38167;DHT22;23980;51.902;12.832;2022-09-09T17:44:48;18.50;59.50
38167;DHT22;23980;51.902;12.832;2022-09-09T17:49:51;18.20;59.80
38167;DHT22;23980;51.902;12.832;2022-09-09T17:55:03;18.10;59.70
38167;DHT22;23980;51.902;12.832;2022-09-09T18:00:10;17.90;60.00
38167;DHT22;23980;51.902;12.832;2022-09-09T18:05:14;17.70;59.90
38167;DHT22;23980;51.902;12.832;2022-09-09T18:10:25;17.60;59.60
38167;DHT22;23980;51.902;12.832;2022-09-09T18:15:30;17.40;60.00
38167;DHT22;23980;51.902;12.832;2022-09-09T18:20:34;17.30;60.00
38167;DHT22;23980;51.902;12.832;2022-09-09T18:25:42;17.10;60.00
38167;DHT22;23980;51.902;12.832;2022-09-09T18:30:44;17.00;60.10
38167;DHT22;23980;51.902;12.832;2022-09-09T18:36:02;16.90;59.70
38167;DHT22;23980;51.902;12.832;2022-09-09T18:41:17;16.70;60.10
38167;DHT22;23980;51.902;12.832;2022-09-09T18:46:30;16.70;60.00
38167;DHT22;23980;51.902;12.832;2022-09-09T18:51:32;16.60;60.20
38167;DHT22;23980;51.902;12.832;2022-09-09T18:56:47;16.50;59.70
38167;DHT22;23980;51.902;12.832;2022-09-09T19:08:09;16.40;60.30
38167;DHT22;23980;51.902;12.832;2022-09-09T19:13:10;16.30;59.90
38167;DHT22;23980;51.902;12.832;2022-09-09T19:18:11;16.30;60.00
38167;DHT22;23980;51.902;12.832;2022-09-09T19:23:16;16.30;60.10
38167;DHT22;23980;51.902;12.832;2022-09-09T19:28:20;16.20;60.20
38167;DHT22;23980;51.902;12.832;2022-09-09T19:33:31;16.20;60.30
38167;DHT22;23980;51.902;12.832;2022-09-09T19:38:38;16.20;60.70
38167;DHT22;23980;51.902;12.832;2022-09-09T19:43:47;16.20;60.60
38167;DHT22;23980;51.902;12.832;2022-09-09T19:48:49;16.10;60.60
38167;DHT22;23980;51.902;12.832;2022-09-09T19:53:52;16.10;60.30
38167;DHT22;23980;51.902;12.832;2022-09-09T19:59:12;16.10;60.30
38167;DHT22;23980;51.902;12.832;2022-09-09T20:04:14;16.10;60.80
38167;DHT22;23980;51.902;12.832;2022-09-09T20:09:16;16.00;60.30
38167;DHT22;23980;51.902;12.832;2022-09-09T20:14:27;16.00;60.30
38167;DHT22;23980;51.902;12.832;2022-09-09T20:19:28;16.00;60.90
38167;DHT22;23980;51.902;12.832;2022-09-09T20:24:40;16.00;60.30
38167;DHT22;23980;51.902;12.832;2022-09-09T20:29:44;16.00;60.80
38167;DHT22;23980;51.902;12.832;2022-09-09T20:34:46;15.90;60.40
38167;DHT22;23980;51.902;12.832;2022-09-09T20:39:47;15.90;60.30
38167;DHT22;23980;51.902;12.832;2022-09-09T20:44:49;15.90;60.30
38167;DHT22;23980;51.902;12.832;2022-09-09T20:49:49;15.90;60.40
38167;DHT22;23980;51.902;12.832;2022-09-09T20:54:51;15.90;60.40
38167;DHT22;23980;51.902;12.832;2022-09-09T20:59:54;15.90;60.40
38167;DHT22;23980;51.902;12.832;2022-09-09T21:05:05;15.90;60.50
38167;DHT22;23980;51.902;12.832;2022-09-09T21:10:11;15.80;60.90
38167;DHT22;23980;51.902;12.832;2022-09-09T21:15:13;15.80;60.70
38167;DHT22;23980;51.902;12.832;2022-09-09T21:20:16;15.70;60.40
38167;DHT22;23980;51.902;12.832;2022-09-09T21:25:17;15.70;60.50
38167;DHT22;23980;51.902;12.832;2022-09-09T21:30:35;15.60;60.30
38167;DHT22;23980;51.902;12.832;2022-09-09T21:35:38;15.60;60.80
38167;DHT22;23980;51.902;12.832;2022-09-09T21:41:06;15.50;60.40
38167;DHT22;23980;51.902;12.832;2022-09-09T21:46:08;15.50;60.90
38167;DHT22;23980;51.902;12.832;2022-09-09T21:51:12;15.40;60.50
38167;DHT22;23980;51.902;12.832;2022-09-09T21:56:18;15.40;60.60
38167;DHT22;23980;51.902;12.832;2022-09-09T22:01:18;15.30;60.70
38167;DHT22;23980;51.902;12.832;2022-09-09T22:06:19;15.30;60.50
38167;DHT22;23980;51.902;12.832;2022-09-09T22:11:22;15.20;60.50
38167;DHT22;23980;51.902;12.832;2022-09-09T22:16:23;15.10;60.60
38167;DHT22;23980;51.902;12.832;2022-09-09T22:21:26;15.10;60.50
38167;DHT22;23980;51.902;12.832;2022-09-09T22:26:30;15.10;60.60
38167;DHT22;23980;51.902;12.832;2022-09-09T22:31:32;15.00;60.70
38167;DHT22;23980;51.902;12.832;2022-09-09T22:36:33;14.90;60.60
38167;DHT22;23980;51.902;12.832;2022-09-09T22:41:33;14.90;60.60
38167;DHT22;23980;51.902;12.832;2022-09-09T22:46:35;14.80;61.10
38167;DHT22;23980;51.902;12.832;2022-09-09T22:51:35;14.80;60.70
38167;DHT22;23980;51.902;12.832;2022-09-09T22:56:36;14.70;60.70
38167;DHT22;23980;51.902;12.832;2022-09-09T23:01:54;14.70;60.70
38167;DHT22;23980;51.902;12.832;2022-09-09T23:06:56;14.60;61.10
38167;DHT22;23980;51.902;12.832;2022-09-09T23:11:57;14.50;60.60
38167;DHT22;23980;51.902;12.832;2022-09-09T23:17:00;14.50;60.70
38167;DHT22;23980;51.902;12.832;2022-09-09T23:22:08;14.50;60.90
38167;DHT22;23980;51.902;12.832;2022-09-09T23:27:08;14.40;61.10
38167;DHT22;23980;51.902;12.832;2022-09-09T23:32:09;14.30;60.80
38167;DHT22;23980;51.902;12.832;2022-09-09T23:37:11;14.30;60.90
38167;DHT22;23980;51.902;12.832;2022-09-09T23:42:26;14.30;60.90
38167;DHT22;23980;51.902;12.832;2022-09-09T23:47:36;14.20;61.40
38167;DHT22;23980;51.902;12.832;2022-09-09T23:52:37;14.10;61.30
38167;DHT22;23980;51.902;12.832;2022-09-09T23:57:43;14.10;60.90
